Time;durP1;ratioP1;P1;durP2;ratioP2;P2;SDS_P1;SDS_P2;PMS_P1;PMS_P2;Temp;Humidity;BMP_temperature;BMP_pressure;BME280_temperature;BME280_humidity;BME280_pressure;Samples;Min_cycle;Max_cycle;Signal;HPM_P1;HPM_P2
2021/07/11 00:02:09;;;;;;;11.95;6.32;;;614.50;2278.40;;;;;;5015235;28;20073;-83
2021/07/11 00:04:35;;;;;;;13.05;6.32;;;589.50;2304.00;;;;;;5015208;28;20049;-83
2021/07/11 00:07:01;;;;;;;12.10;5.75;;;614.50;2304.00;;;;;;5015509;28;20449;-82
2021/07/11 00:09:27;;;;;;;10.18;6.65;;;614.40;2278.40;;;;;;5015041;28;20026;-83
2021/07/11 00:11:53;;;;;;;10.40;5.75;;;614.50;2278.40;;;;;;5015494;28;20026;-81
2021/07/11 00:14:18;;;;;;;12.07;5.97;;;614.50;2278.40;;;;;;5015398;28;20021;-82
2021/07/11 00:16:44;;;;;;;11.38;5.88;;;614.40;2278.40;;;;;;5017818;28;20068;-80
2021/07/11 00:19:10;;;;;;;8.57;5.45;;;614.40;2278.40;;;;;;5019175;28;20021;-83
2021/07/11 00:21:36;;;;;;;12.32;6.55;;;614.40;2278.40;;;;;;5018760;28;20022;-81
2021/07/11 00:24:02;;;;;;;8.60;5.97;;;589.70;2304.00;;;;;;5018646;28;20026;-81
2021/07/11 00:26:28;;;;;;;11.15;6.43;;;589.70;2304.00;;;;;;5018597;28;20461;-81
2021/07/11 00:28:54;;;;;;;7.95;6.18;;;589.40;2329.60;;;;;;5018862;28;20028;-83
2021/07/11 00:31:20;;;;;;;9.50;5.78;;;589.50;2329.60;;;;;;5018549;28;20032;-82
2021/07/11 00:33:45;;;;;;;10.15;5.82;;;589.50;2355.20;;;;;;5018541;28;20021;-82
2021/07/11 00:36:11;;;;;;;9.48;6.28;;;589.50;2329.60;;;;;;5018753;28;20030;-82
2021/07/11 00:38:37;;;;;;;9.32;5.90;;;589.60;2329.60;;;;;;5035969;28;20095;-82
2021/07/11 00:41:03;;;;;;;10.35;6.70;;;589.70;2329.60;;;;;;5018143;28;20027;-81
2021/07/11 00:43:29;;;;;;;8.98;5.78;;;589.50;2355.20;;;;;;5018346;28;20018;-83
2021/07/11 00:45:54;;;;;;;8.13;5.95;;;589.50;2329.60;;;;;;5017618;28;20051;-83
2021/07/11 00:48:20;;;;;;;10.50;6.25;;;589.50;2329.60;;;;;;5018130;28;20049;-81
2021/07/11 00:50:47;;;;;;;10.63;6.35;;;589.60;2329.60;;;;;;5017992;28;20075;-81
2021/07/11 00:53:14;;;;;;;10.27;6.70;;;589.70;2329.60;;;;;;5018181;28;20053;-82
2021/07/11 00:55:40;;;;;;;12.32;6.38;;;589.10;2355.20;;;;;;5018063;28;20056;-83
2021/07/11 00:58:06;;;;;;;7.65;5.57;;;589.40;2355.20;;;;;;5018286;28;20032;-83
2021/07/11 01:00:33;;;;;;;15.27;6.63;;;589.30;2380.80;;;;;;5017970;28;20111;-84
2021/07/11 01:03:20;;;;;;;10.50;6.53;;;589.30;2380.80;;;;;;5018543;28;20021;-83
2021/07/11 01:05:46;;;;;;;10.27;6.35;;;589.00;2406.40;;;;;;5018576;28;20080;-80
2021/07/11 01:08:17;;;;;;;7.78;6.03;;;589.00;2432.00;;;;;;5018604;28;20025;-80
2021/07/11 01:10:45;;;;;;;10.70;5.97;;;589.20;2432.00;;;;;;5018622;28;20025;-82
2021/07/11 01:13:15;;;;;;;8.30;5.95;;;589.20;2432.00;;;;;;5018256;28;20017;-80
2021/07/11 01:15:46;;;;;;;12.93;6.75;;;589.20;2432.00;;;;;;5018421;28;20021;-80
2021/07/11 01:18:13;;;;;;;11.57;6.72;;;589.20;2432.00;;;;;;5035779;28;20048;-80
2021/07/11 01:20:45;;;;;;;8.77;6.15;;;588.80;2432.00;;;;;;5036148;28;20064;-80
2021/07/11 01:23:22;;;;;;;10.13;7.20;;;588.80;2432.00;;;;;;5018246;28;20029;-82
2021/07/11 01:25:50;;;;;;;15.05;10.15;;;588.90;2432.00;;;;;;5018454;28;20048;-82
2021/07/11 01:28:20;;;;;;;13.38;9.77;;;564.10;2432.00;;;;;;5017400;28;20124;-79
2021/07/11 01:30:50;;;;;;;17.00;8.98;;;564.00;2432.00;;;;;;5018335;28;20061;-81
2021/07/11 01:33:19;;;;;;;16.60;7.90;;;563.80;2432.00;;;;;;5017886;28;20018;-82
2021/07/11 01:35:45;;;;;;;11.25;8.05;;;563.50;2432.00;;;;;;5018057;28;20030;-81
2021/07/11 01:38:12;;;;;;;10.77;5.72;;;563.70;2432.00;;;;;;5017910;28;20117;-82
2021/07/11 01:40:41;;;;;;;10.98;6.88;;;563.90;2432.00;;;;;;5035404;28;20017;-81
2021/07/11 01:43:07;;;;;;;9.75;6.55;;;563.80;2432.00;;;;;;5017766;28;20026;-81
2021/07/11 01:45:33;;;;;;;8.93;6.18;;;563.80;2432.00;;;;;;5017688;28;20041;-82
2021/07/11 01:47:59;;;;;;;10.68;6.63;;;563.80;2432.00;;;;;;5035299;28;20022;-82
2021/07/11 01:50:26;;;;;;;11.57;6.63;;;563.50;2432.00;;;;;;5017876;28;20373;-82
2021/07/11 01:52:53;;;;;;;7.72;6.90;;;563.40;2432.00;;;;;;5017412;28;20461;-81
2021/07/11 01:55:20;;;;;;;11.50;6.50;;;563.30;2432.00;;;;;;5017402;28;20529;-83
2021/07/11 01:57:47;;;;;;;7.95;6.20;;;563.50;2432.00;;;;;;5017642;28;20025;-81
2021/07/11 02:00:16;;;;;;;11.00;6.53;;;563.60;2432.00;;;;;;5035263;28;20100;-81
2021/07/11 02:02:46;;;;;;;10.63;6.15;;;563.50;2432.00;;;;;;5017249;28;20024;-81
2021/07/11 02:05:14;;;;;;;8.68;5.80;;;563.60;2432.00;;;;;;5017529;28;20044;-81
2021/07/11 02:07:40;;;;;;;10.25;7.30;;;563.50;2432.00;;;;;;5017446;28;20025;-80
2021/07/11 02:10:13;;;;;;;11.40;7.93;;;538.40;2406.40;;;;;;5017086;28;20028;-82
2021/07/11 02:12:53;;;;;;;12.82;7.95;;;538.50;2406.40;;;;;;5034679;28;20109;-82
2021/07/11 02:15:19;;;;;;;11.45;7.55;;;538.20;2406.40;;;;;;5017164;28;20079;-80
2021/07/11 02:17:50;;;;;;;10.20;6.93;;;538.10;2406.40;;;;;;5017186;28;20017;-82
2021/07/11 02:20:16;;;;;;;11.63;6.93;;;538.40;2406.40;;;;;;5017271;28;20022;-82
2021/07/11 02:22:47;;;;;;;13.68;7.60;;;538.20;2406.40;;;;;;5017031;28;20067;-82
2021/07/11 02:25:19;;;;;;;15.73;6.82;;;538.20;2406.40;;;;;;5017126;28;20108;-80
2021/07/11 02:27:47;;;;;;;13.70;7.05;;;538.40;2406.40;;;;;;5034859;28;20028;-79
2021/07/11 02:30:26;;;;;;;13.90;7.38;;;538.00;2406.40;;;;;;5034703;28;20036;-82
2021/07/11 02:32:53;;;;;;;9.50;6.82;;;538.10;2406.40;;;;;;5017163;28;20022;-82
2021/07/11 02:35:36;;;;;;;11.07;6.78;;;538.20;2406.40;;;;;;5034945;28;20071;-80
2021/07/11 02:38:02;;;;;;;12.32;7.53;;;538.10;2406.40;;;;;;5016605;28;20024;-80
2021/07/11 02:40:32;;;;;;;12.65;7.25;;;538.20;2406.40;;;;;;5016058;28;20022;-82
2021/07/11 02:43:00;;;;;;;12.80;7.25;;;538.30;2406.40;;;;;;5034899;28;20026;-81
2021/07/11 02:45:27;;;;;;;14.80;7.75;;;538.10;2406.40;;;;;;5016200;28;20138;-80
2021/07/11 02:47:54;;;;;;;12.07;6.97;;;537.80;2406.40;;;;;;5016738;28;20026;-79
2021/07/11 02:50:21;;;;;;;9.88;6.93;;;538.00;2406.40;;;;;;5016380;28;20099;-80
2021/07/11 02:52:47;;;;;;;12.73;6.85;;;538.10;2406.40;;;;;;5016850;28;20026;-81
2021/07/11 02:55:24;;;;;;;11.60;8.13;;;537.80;2406.40;;;;;;5034270;28;20607;-81
2021/07/11 02:57:54;;;;;;;10.30;7.30;;;537.60;2406.40;;;;;;5033901;28;20029;-81
2021/07/11 03:00:20;;;;;;;15.55;9.02;;;537.90;2406.40;;;;;;5016709;28;20033;-82
2021/07/11 03:02:47;;;;;;;12.57;8.10;;;512.80;2380.80;;;;;;5016721;28;20057;-81
2021/07/11 03:05:18;;;;;;;13.80;7.60;;;537.70;2406.40;;;;;;5016394;28;20029;-80
2021/07/11 03:07:44;;;;;;;15.50;8.07;;;538.00;2406.40;;;;;;5016663;28;20056;-80
2021/07/11 03:10:11;;;;;;;13.88;7.40;;;537.70;2406.40;;;;;;5016517;28;20365;-82
2021/07/11 03:12:37;;;;;;;15.10;9.38;;;537.70;2406.40;;;;;;5016274;28;20334;-80
2021/07/11 03:15:03;;;;;;;14.27;8.73;;;512.60;2380.80;;;;;;5016303;28;20056;-79
2021/07/11 03:17:31;;;;;;;12.73;8.75;;;512.90;2380.80;;;;;;5016493;28;20017;-80
2021/07/11 03:19:58;;;;;;;13.70;8.95;;;512.80;2380.80;;;;;;5016377;28;20028;-80
2021/07/11 03:22:29;;;;;;;12.93;8.93;;;538.00;2406.40;;;;;;5016408;28;20117;-79
2021/07/11 03:24:57;;;;;;;15.98;8.45;;;512.80;2380.80;;;;;;5016339;28;20480;-80
2021/07/11 03:27:26;;;;;;;15.15;8.82;;;512.80;2380.80;;;;;;5016001;28;20056;-80
2021/07/11 03:30:04;;;;;;;15.85;8.60;;;512.80;2380.80;;;;;;5016409;28;20021;-79
2021/07/11 03:32:56;;;;;;;11.68;7.50;;;512.90;2380.80;;;;;;5016298;28;20029;-82
2021/07/11 03:35:30;;;;;;;14.80;8.30;;;512.90;2380.80;;;;;;5016327;28;20018;-82
2021/07/11 03:37:59;;;;;;;18.13;8.63;;;537.60;2406.40;;;;;;5016286;28;20025;-80
2021/07/11 03:40:29;;;;;;;14.27;8.35;;;512.90;2380.80;;;;;;5016107;28;20339;-79
2021/07/11 03:42:59;;;;;;;12.38;7.28;;;537.60;2406.40;;;;;;5016204;28;20028;-83
2021/07/11 03:45:26;;;;;;;9.35;7.75;;;537.60;2406.40;;;;;;5015627;28;20041;-79
2021/07/11 03:48:01;;;;;;;14.02;7.15;;;537.70;2406.40;;;;;;5015807;28;20115;-80
2021/07/11 03:50:27;;;;;;;12.52;8.70;;;537.80;2406.40;;;;;;5034784;28;20441;-80
2021/07/11 03:53:01;;;;;;;15.15;8.00;;;512.50;2380.80;;;;;;5019965;28;20025;-80
2021/07/11 03:55:29;;;;;;;16.30;8.18;;;537.70;2406.40;;;;;;5019720;28;20053;-83
2021/07/11 03:57:56;;;;;;;16.67;8.23;;;537.70;2406.40;;;;;;5019854;28;20032;-82
2021/07/11 04:00:22;;;;;;;10.90;8.63;;;512.50;2380.80;;;;;;5037237;28;20021;-82
2021/07/11 04:02:50;;;;;;;10.40;8.80;;;512.30;2380.80;;;;;;5037666;28;20064;-82
2021/07/11 04:05:20;;;;;;;14.98;8.90;;;512.50;2380.80;;;;;;5019799;28;20112;-81
2021/07/11 04:07:49;;;;;;;8.95;7.40;;;512.80;2380.80;;;;;;5019490;28;20028;-82
2021/07/11 04:10:15;;;;;;;12.02;7.53;;;537.60;2406.40;;;;;;5037567;28;20029;-80
2021/07/11 04:12:41;;;;;;;29.58;21.05;;;512.90;2380.80;;;;;;5037317;28;20080;-80
2021/07/11 04:15:07;;;;;;;26.15;23.65;;;512.80;2380.80;;;;;;5019423;28;20026;-79
2021/07/11 04:17:35;;;;;;;21.27;15.43;;;512.60;2380.80;;;;;;5019547;28;20033;-81
2021/07/11 04:20:03;;;;;;;12.77;9.35;;;512.80;2380.80;;;;;;5037519;28;20029;-83
2021/07/11 04:22:30;;;;;;;14.48;8.10;;;512.80;2380.80;;;;;;5019127;28;20034;-82
2021/07/11 04:24:56;;;;;;;12.77;8.63;;;512.90;2380.80;;;;;;5019231;28;20021;-83
2021/07/11 04:27:24;;;;;;;12.40;8.43;;;512.90;2380.80;;;;;;5036999;28;20029;-83
2021/07/11 04:29:51;;;;;;;10.50;7.25;;;512.80;2380.80;;;;;;5036758;28;20481;-80
2021/07/11 04:32:17;;;;;;;16.38;8.30;;;512.90;2380.80;;;;;;5037179;28;20061;-81
2021/07/11 04:34:44;;;;;;;14.90;8.25;;;537.60;2406.40;;;;;;5019215;28;20056;-80
2021/07/11 04:37:14;;;;;;;15.02;9.50;;;512.80;2380.80;;;;;;5018946;28;20025;-81
2021/07/11 04:39:40;;;;;;;13.93;8.68;;;512.90;2380.80;;;;;;5019013;28;20028;-82
2021/07/11 04:42:06;;;;;;;13.00;7.10;;;537.60;2406.40;;;;;;5019124;28;20021;-82
2021/07/11 04:44:32;;;;;;;12.55;8.20;;;512.90;2380.80;;;;;;5036397;28;20063;-79
2021/07/11 04:46:58;;;;;;;12.73;8.20;;;512.70;2380.80;;;;;;5018941;28;20029;-81
2021/07/11 04:49:25;;;;;;;12.85;8.45;;;512.70;2380.80;;;;;;5036032;28;20028;-82
2021/07/11 04:51:55;;;;;;;14.73;8.50;;;512.90;2380.80;;;;;;5018541;28;20028;-82
2021/07/11 04:54:21;;;;;;;11.93;8.38;;;537.60;2406.40;;;;;;5018861;28;20047;-80
2021/07/11 04:56:47;;;;;;;11.27;7.47;;;512.80;2380.80;;;;;;5018629;28;20453;-80
2021/07/11 04:59:12;;;;;;;12.07;7.35;;;512.90;2380.80;;;;;;5018685;28;20026;-81
2021/07/11 05:01:38;;;;;;;13.57;7.38;;;512.90;2380.80;;;;;;5017819;28;20030;-82
2021/07/11 05:04:04;;;;;;;12.18;7.85;;;512.60;2380.80;;;;;;5018054;28;20488;-81
2021/07/11 05:06:30;;;;;;;10.70;7.63;;;512.70;2380.80;;;;;;5018534;28;20435;-80
2021/07/11 05:08:56;;;;;;;13.30;8.10;;;512.60;2380.80;;;;;;5018646;28;20056;-81
2021/07/11 05:11:21;;;;;;;11.43;8.23;;;512.50;2380.80;;;;;;5018249;28;20070;-80
2021/07/11 05:13:47;;;;;;;13.43;7.47;;;512.80;2380.80;;;;;;5017831;28;20025;-82
2021/07/11 05:16:13;;;;;;;14.35;8.30;;;512.80;2380.80;;;;;;5017673;28;20125;-81
2021/07/11 05:18:39;;;;;;;15.25;7.88;;;537.60;2406.40;;;;;;5017477;28;20036;-81
2021/07/11 05:21:05;;;;;;;19.33;9.43;;;537.70;2406.40;;;;;;5018232;28;20022;-81
2021/07/11 05:23:31;;;;;;;17.10;9.43;;;512.90;2380.80;;;;;;5017838;28;20064;-80
2021/07/11 05:25:57;;;;;;;17.45;9.05;;;512.70;2380.80;;;;;;5017592;28;20124;-80
2021/07/11 05:28:23;;;;;;;15.43;8.82;;;537.60;2406.40;;;;;;5017927;28;20417;-81
2021/07/11 05:30:49;;;;;;;22.35;8.80;;;537.80;2406.40;;;;;;5018124;28;20116;-81
2021/07/11 05:33:14;;;;;;;17.80;8.68;;;538.00;2406.40;;;;;;5017837;28;20033;-82
2021/07/11 05:35:40;;;;;;;20.23;9.73;;;538.00;2406.40;;;;;;5017777;28;20025;-80
2021/07/11 05:38:06;;;;;;;11.82;8.23;;;538.20;2406.40;;;;;;5035759;28;20017;-80
2021/07/11 05:40:32;;;;;;;16.63;9.13;;;538.40;2406.40;;;;;;5017821;28;20132;-80
2021/07/11 05:42:58;;;;;;;18.52;8.18;;;538.50;2406.40;;;;;;5017626;28;20052;-81
2021/07/11 05:45:24;;;;;;;13.65;8.63;;;563.40;2432.00;;;;;;5017394;28;20134;-79
2021/07/11 05:47:50;;;;;;;24.08;9.40;;;563.50;2432.00;;;;;;5017606;28;20445;-81
2021/07/11 05:50:16;;;;;;;16.70;8.05;;;563.40;2432.00;;;;;;5017119;28;20026;-81
2021/07/11 05:52:42;;;;;;;13.52;8.77;;;563.40;2432.00;;;;;;5017348;28;20032;-82
2021/07/11 05:55:10;;;;;;;17.08;8.70;;;563.50;2432.00;;;;;;5017334;28;20116;-84
2021/07/11 05:57:36;;;;;;;15.00;8.73;;;563.50;2432.00;;;;;;5017558;28;20405;-82
2021/07/11 06:00:06;;;;;;;18.20;8.70;;;563.70;2432.00;;;;;;5016815;28;20026;-79
2021/07/11 06:02:32;;;;;;;15.65;8.75;;;563.80;2432.00;;;;;;5017117;28;20021;-80
2021/07/11 06:04:58;;;;;;;13.10;8.73;;;564.00;2432.00;;;;;;5017375;28;20115;-81
2021/07/11 06:07:24;;;;;;;19.90;10.27;;;564.10;2432.00;;;;;;5016955;28;20057;-82
2021/07/11 06:09:50;;;;;;;15.05;7.93;;;563.90;2432.00;;;;;;5016990;28;20032;-79
2021/07/11 06:12:16;;;;;;;12.07;6.82;;;588.80;2432.00;;;;;;5035014;28;20017;-81
2021/07/11 06:14:43;;;;;;;12.52;7.65;;;564.10;2432.00;;;;;;5034820;28;20032;-80
2021/07/11 06:17:09;;;;;;;14.05;7.80;;;589.00;2432.00;;;;;;5016920;28;20022;-80
2021/07/11 06:19:35;;;;;;;11.85;7.75;;;589.20;2432.00;;;;;;5034733;28;20417;-79
2021/07/11 06:22:01;;;;;;;12.85;8.65;;;589.20;2432.00;;;;;;5016707;28;20029;-79
2021/07/11 06:24:27;;;;;;;11.48;7.47;;;589.40;2432.00;;;;;;5034811;28;20070;-80
2021/07/11 06:26:53;;;;;;;10.30;7.53;;;589.60;2432.00;;;;;;5017055;28;20022;-82
2021/07/11 06:29:18;;;;;;;13.15;7.65;;;589.70;2432.00;;;;;;5016658;28;20034;-81
2021/07/11 06:31:44;;;;;;;13.38;7.05;;;589.70;2432.00;;;;;;5017017;28;20022;-80
2021/07/11 06:34:10;;;;;;;11.13;6.45;;;589.70;2432.00;;;;;;5016707;28;20025;-80
2021/07/11 06:36:36;;;;;;;10.32;6.50;;;614.50;2432.00;;;;;;5016951;28;20029;-81
2021/07/11 06:39:04;;;;;;;7.90;6.07;;;614.70;2432.00;;;;;;5016827;28;20529;-79
2021/07/11 06:41:29;;;;;;;9.43;5.85;;;614.80;2432.00;;;;;;5016670;28;20026;-80
2021/07/11 06:43:55;;;;;;;10.02;6.20;;;614.90;2432.00;;;;;;5016769;28;20028;-80
2021/07/11 06:46:21;;;;;;;13.27;6.45;;;615.00;2432.00;;;;;;5016596;28;20469;-82
2021/07/11 06:48:47;;;;;;;8.00;6.18;;;615.30;2432.00;;;;;;5016462;28;20445;-81
2021/07/11 06:51:13;;;;;;;7.85;5.18;;;640.10;2432.00;;;;;;5034452;28;20078;-82
2021/07/11 06:53:39;;;;;;;9.02;5.65;;;640.30;2432.00;;;;;;5016710;28;20021;-82
2021/07/11 06:56:05;;;;;;;12.27;5.53;;;640.40;2432.00;;;;;;5016372;28;20476;-82
2021/07/11 06:58:31;;;;;;;19.92;6.50;;;640.50;2432.00;;;;;;5016565;28;20034;-82
2021/07/11 07:00:57;;;;;;;9.48;5.82;;;640.60;2406.40;;;;;;5017279;28;20115;-80
2021/07/11 07:03:23;;;;;;;9.30;4.93;;;640.80;2406.40;;;;;;5017435;28;20511;-82
2021/07/11 07:05:49;;;;;;;7.82;4.28;;;665.60;2406.40;;;;;;5016982;28;20112;-80
2021/07/11 07:08:15;;;;;;;8.60;5.00;;;665.90;2278.40;;;;;;5034514;28;20446;-81
2021/07/11 07:10:41;;;;;;;8.95;5.45;;;665.90;2227.20;;;;;;5017466;28;20017;-81
2021/07/11 07:13:07;;;;;;;10.45;4.90;;;666.00;2227.20;;;;;;5017644;28;20108;-81
2021/07/11 07:15:33;;;;;;;12.23;6.38;;;666.20;2227.20;;;;;;5017039;28;20028;-79
2021/07/11 07:17:59;;;;;;;8.10;4.63;;;691.60;2201.60;;;;;;5016179;28;20017;-79
2021/07/11 07:20:25;;;;;;;9.07;4.93;;;691.30;2150.40;;;;;;5016212;28;20028;-79
2021/07/11 07:22:51;;;;;;;9.27;5.40;;;691.40;2124.80;;;;;;5034086;28;20083;-81
2021/07/11 07:25:18;;;;;;;9.63;4.80;;;691.70;2124.80;;;;;;5016552;28;20369;-80
2021/07/11 07:27:45;;;;;;;9.70;5.18;;;691.70;2073.60;;;;;;5038273;28;20380;-82
2021/07/11 07:30:15;;;;;;;8.68;5.07;;;692.00;2073.60;;;;;;5037692;28;20408;-80
2021/07/11 07:32:41;;;;;;;7.03;4.72;;;691.70;2099.20;;;;;;5037911;28;20086;-80
2021/07/11 07:35:08;;;;;;;10.82;5.88;;;691.50;2099.20;;;;;;5037817;28;20446;-83
2021/07/11 07:37:34;;;;;;;7.65;5.05;;;691.60;2099.20;;;;;;5037669;28;20157;-79
2021/07/11 07:40:01;;;;;;;9.80;4.30;;;691.40;2073.60;;;;;;5020080;28;20056;-80
2021/07/11 07:42:27;;;;;;;11.52;5.05;;;691.60;2099.20;;;;;;5020048;28;20021;-82
2021/07/11 07:44:53;;;;;;;11.57;4.88;;;691.60;2073.60;;;;;;5019550;28;20052;-82
2021/07/11 07:47:19;;;;;;;8.23;4.50;;;691.60;2022.40;;;;;;5020182;28;20041;-82
2021/07/11 07:49:45;;;;;;;7.32;4.90;;;691.70;2048.00;;;;;;5020314;28;20026;-83
2021/07/11 07:52:11;;;;;;;9.25;4.72;;;691.80;2022.40;;;;;;5022112;28;20037;-80
2021/07/11 07:54:36;;;;;;;6.88;4.50;;;691.90;1996.80;;;;;;5040510;28;20055;-81
2021/07/11 07:57:02;;;;;;;16.13;6.00;;;716.80;1971.20;;;;;;5057568;28;20138;-80
2021/07/11 07:59:28;;;;;;;9.40;4.93;;;717.10;1971.20;;;;;;5039599;28;20025;-82
2021/07/11 08:01:54;;;;;;;12.20;5.35;;;717.20;1920.00;;;;;;5039491;28;20021;-80
2021/07/11 08:04:20;;;;;;;6.97;4.00;;;717.50;1920.00;;;;;;5039206;28;20017;-82
2021/07/11 08:06:50;;;;;;;9.77;4.30;;;717.50;1868.80;;;;;;5038899;28;20037;-82
2021/07/11 08:09:16;;;;;;;11.98;7.10;;;717.70;1868.80;;;;;;5039358;28;20079;-81
2021/07/11 08:11:43;;;;;;;9.02;4.40;;;742.60;1894.40;;;;;;5057266;28;20463;-80
2021/07/11 08:14:09;;;;;;;6.97;4.90;;;742.50;1868.80;;;;;;5038915;28;20116;-80
2021/07/11 08:16:35;;;;;;;13.55;6.72;;;742.50;1868.80;;;;;;5048139;28;20021;-78
2021/07/11 08:19:01;;;;;;;13.65;5.10;;;743.00;1894.40;;;;;;5052792;28;20056;-78
2021/07/11 08:21:29;;;;;;;10.65;5.13;;;743.20;1868.80;;;;;;5057782;28;20025;-79
2021/07/11 08:23:55;;;;;;;10.30;6.53;;;743.30;1843.20;;;;;;5076503;28;20084;-80
2021/07/11 08:26:21;;;;;;;8.45;4.85;;;768.10;1843.20;;;;;;5074981;28;20052;-77
2021/07/11 08:28:47;;;;;;;10.25;5.13;;;743.30;1817.60;;;;;;5060546;28;20039;-78
2021/07/11 08:31:13;;;;;;;15.73;9.05;;;768.20;1843.20;;;;;;5067916;28;20453;-80
2021/07/11 08:33:39;;;;;;;9.90;5.90;;;768.40;1817.60;;;;;;5038540;28;20115;-79
2021/07/11 08:36:04;;;;;;;9.10;4.80;;;768.50;1843.20;;;;;;5038123;28;20033;-79
2021/07/11 08:38:31;;;;;;;14.00;9.88;;;768.70;1843.20;;;;;;5038543;28;20032;-83
2021/07/11 08:40:56;;;;;;;9.02;5.15;;;768.90;1817.60;;;;;;5038300;28;20070;-80
2021/07/11 08:43:24;;;;;;;13.65;5.10;;;793.70;1843.20;;;;;;5036727;28;20021;-82
2021/07/11 08:45:49;;;;;;;12.05;6.20;;;793.80;1792.00;;;;;;5034246;28;20038;-76
2021/07/11 08:48:16;;;;;;;12.07;6.05;;;794.00;1766.40;;;;;;5060316;28;20001;-78
2021/07/11 08:50:41;;;;;;;9.15;6.20;;;794.10;1766.40;;;;;;5034668;28;20021;-79
2021/07/11 08:53:15;;;;;;;12.88;6.75;;;794.20;1740.80;;;;;;5042491;28;20028;-77
2021/07/11 08:55:42;;;;;;;11.32;7.35;;;794.30;1766.40;;;;;;5041368;28;20040;-77
2021/07/11 08:58:09;;;;;;;11.52;8.18;;;794.50;1766.40;;;;;;5038320;28;20116;-81
2021/07/11 09:00:37;;;;;;;8.82;5.15;;;819.20;1740.80;;;;;;5046104;28;20075;-79
2021/07/11 09:03:06;;;;;;;8.85;5.25;;;819.30;1740.80;;;;;;5043402;28;20021;-79
2021/07/11 09:05:39;;;;;;;7.93;6.38;;;819.40;1740.80;;;;;;5063175;28;20017;-80
2021/07/11 09:08:08;;;;;;;11.05;6.63;;;819.60;1740.80;;;;;;5059054;28;20024;-79
2021/07/11 09:10:57;;;;;;;10.98;5.35;;;819.60;1715.20;;;;;;5047835;28;20025;-78
2021/07/11 09:13:31;;;;;;;9.68;5.63;;;819.80;1715.20;;;;;;5032417;28;20053;-78
2021/07/11 09:15:58;;;;;;;9.27;5.72;;;819.90;1689.60;;;;;;5031093;28;20052;-79
2021/07/11 09:18:30;;;;;;;14.98;6.63;;;820.00;1715.20;;;;;;5026959;28;20017;-80
2021/07/11 09:20:59;;;;;;;10.48;6.85;;;819.80;1715.20;;;;;;5023412;28;20022;-81
2021/07/11 09:23:27;;;;;;;10.57;6.75;;;820.10;1715.20;;;;;;5046535;28;20095;-80
2021/07/11 09:26:05;;;;;;;10.65;7.57;;;820.00;1715.20;;;;;;5025034;28;20099;-79
2021/07/11 09:28:33;;;;;;;15.13;11.77;;;844.80;1740.80;;;;;;5028127;28;20033;-79
2021/07/11 09:31:10;;;;;;;11.45;6.35;;;844.90;1740.80;;;;;;5027699;28;20017;-80
2021/07/11 09:33:39;;;;;;;14.80;7.00;;;845.00;1715.20;;;;;;5052075;28;20014;-79
2021/07/11 09:36:11;;;;;;;18.67;9.25;;;844.90;1715.20;;;;;;5035679;28;20052;-80
2021/07/11 09:38:38;;;;;;;11.88;7.40;;;845.20;1689.60;;;;;;5052464;28;20029;-81
2021/07/11 09:41:22;;;;;;;12.95;9.20;;;845.40;1689.60;;;;;;5036155;28;20097;-81
2021/07/11 09:43:52;;;;;;;8.77;7.68;;;845.60;1689.60;;;;;;5055835;28;20029;-78
2021/07/11 09:46:19;;;;;;;11.75;7.78;;;845.70;1638.40;;;;;;5032487;28;20048;-80
2021/07/11 09:48:45;;;;;;;10.80;7.28;;;870.50;1638.40;;;;;;5015575;28;20405;-78
2021/07/11 09:51:15;;;;;;;11.48;7.25;;;;;;;;;;5016635;28;20027;-80
2021/07/11 09:53:41;;;;;;;10.27;8.50;;;870.70;1587.20;;;;;;5016465;28;20349;-78
2021/07/11 09:56:08;;;;;;;13.35;6.40;;;870.60;1612.80;;;;;;5016022;28;20025;-78
2021/07/11 09:58:34;;;;;;;9.77;6.10;;;870.90;1587.20;;;;;;5016318;28;20108;-78
2021/07/11 10:01:00;;;;;;;6.35;4.57;;;871.10;1587.20;;;;;;5035827;28;20514;-79
2021/07/11 10:03:26;;;;;;;10.20;5.40;;;871.10;1536.00;;;;;;5041894;28;20069;-80
2021/07/11 10:05:51;;;;;;;8.15;5.38;;;870.80;1536.00;;;;;;5040037;28;20032;-82
2021/07/11 10:08:17;;;;;;;14.35;6.57;;;870.80;1536.00;;;;;;5045779;28;20045;-80
2021/07/11 10:10:44;;;;;;;12.18;5.53;;;870.70;1587.20;;;;;;5023508;28;20049;-79
2021/07/11 10:13:10;;;;;;;12.55;6.97;;;870.80;1561.60;;;;;;5037071;28;20022;-79
2021/07/11 10:15:39;;;;;;;10.95;5.82;;;871.10;1561.60;;;;;;5038274;28;20033;-84
2021/07/11 10:18:12;;;;;;;9.63;6.18;;;871.30;1536.00;;;;;;5025762;28;20092;-80
2021/07/11 10:20:54;;;;;;;13.00;6.88;;;896.20;1510.40;;;;;;5026106;28;20049;-80
2021/07/11 10:23:28;;;;;;;9.43;6.53;;;896.30;1510.40;;;;;;5033826;28;20087;-80
2021/07/11 10:25:59;;;;;;;10.02;5.95;;;896.40;1484.80;;;;;;5055087;28;20376;-80
2021/07/11 10:28:28;;;;;;;12.23;9.02;;;896.60;1510.40;;;;;;5030965;28;20059;-82
2021/07/11 10:30:54;;;;;;;15.05;6.80;;;896.70;1459.20;;;;;;5027810;28;20123;-80
2021/07/11 10:33:25;;;;;;;8.95;5.63;;;896.70;1459.20;;;;;;5017189;28;20105;-81
2021/07/11 10:35:51;;;;;;;15.70;6.15;;;871.30;1484.80;;;;;;5020751;28;20029;-81
2021/07/11 10:38:39;;;;;;;11.63;6.55;;;870.90;1510.40;;;;;;5037819;28;20021;-82
2021/07/11 10:41:12;;;;;;;9.57;6.10;;;871.10;1510.40;;;;;;5018432;28;20113;-83
2021/07/11 10:43:40;;;;;;;7.93;5.18;;;871.30;1510.40;;;;;;5018538;28;20432;-81
2021/07/11 10:46:06;;;;;;;13.25;6.55;;;871.10;1510.40;;;;;;5018418;28;20049;-82
2021/07/11 10:48:31;;;;;;;11.25;7.45;;;870.70;1536.00;;;;;;5018435;28;20022;-83
2021/07/11 10:50:58;;;;;;;8.23;7.38;;;845.50;1561.60;;;;;;5026564;28;20041;-83
2021/07/11 10:53:31;;;;;;;8.52;6.85;;;845.40;1561.60;;;;;;5031073;28;20032;-81
2021/07/11 10:55:57;;;;;;;12.10;6.65;;;845.40;1561.60;;;;;;5018415;28;20026;-82
2021/07/11 10:58:23;;;;;;;9.63;6.20;;;870.70;1536.00;;;;;;5017120;28;20476;-82
2021/07/11 11:00:49;;;;;;;12.65;7.40;;;870.90;1510.40;;;;;;5018003;28;20373;-83
2021/07/11 11:03:20;;;;;;;12.23;7.45;;;896.70;1510.40;;;;;;5016947;28;20342;-83
2021/07/11 11:05:48;;;;;;;8.48;6.25;;;896.00;1510.40;;;;;;5016342;28;20060;-81
2021/07/11 11:08:17;;;;;;;13.00;7.13;;;896.30;1484.80;;;;;;5016626;28;20461;-82
2021/07/11 11:10:45;;;;;;;9.00;5.63;;;896.60;1459.20;;;;;;5016128;28;20446;-81
2021/07/11 11:13:19;;;;;;;10.80;5.57;;;896.90;1433.60;;;;;;5016375;28;20022;-82
2021/07/11 11:15:51;;;;;;;10.80;8.00;;;921.60;1433.60;;;;;;5016356;28;20469;-82
2021/07/11 11:18:38;;;;;;;12.43;9.10;;;896.90;1433.60;;;;;;5016187;28;20037;-82
2021/07/11 11:21:14;;;;;;;6.85;5.50;;;896.80;1433.60;;;;;;5016288;28;20017;-82
2021/07/11 11:23:46;;;;;;;11.73;6.60;;;896.60;1408.00;;;;;;5016336;28;20070;-81
2021/07/11 11:26:17;;;;;;;14.45;7.05;;;;;;;;;;5033873;28;20036;-83
2021/07/11 11:28:43;;;;;;;;;;;921.80;1433.60;;;;;;5016871;28;20021;-80
2021/07/11 11:31:21;;;;;;;10.52;6.72;;;922.00;1433.60;;;;;;5016623;28;19901;-82
2021/07/11 11:34:08;;;;;;;11.23;7.10;;;921.60;1408.00;;;;;;5016309;28;20075;-81
2021/07/11 11:36:37;;;;;;;8.45;5.57;;;921.60;1408.00;;;;;;5016554;28;20414;-80
2021/07/11 11:39:10;;;;;;;9.63;6.10;;;921.70;1382.40;;;;;;5016009;28;20030;-81
2021/07/11 11:41:37;;;;;;;8.73;6.00;;;896.40;1382.40;;;;;;5016343;28;20029;-81
2021/07/11 11:44:30;;;;;;;8.75;5.40;;;896.30;1382.40;;;;;;5016180;28;20501;-81
2021/07/11 11:46:59;;;;;;;9.02;7.07;;;896.70;1382.40;;;;;;5029703;28;20051;-82
2021/07/11 11:49:27;;;;;;;8.00;5.47;;;896.60;1356.80;;;;;;5016124;28;20026;-82
2021/07/11 11:51:58;;;;;;;7.22;6.03;;;896.00;1356.80;;;;;;5016181;28;20022;-81
2021/07/11 11:54:49;;;;;;;;;;;896.50;1356.80;;;;;;5016410;28;20018;-83
2021/07/11 11:57:14;;;;;;;8.85;5.90;;;921.90;1382.40;;;;;;5028588;28;19940;-81
2021/07/11 11:59:40;;;;;;;11.40;7.97;;;922.00;1382.40;;;;;;5016023;28;20055;-80
2021/07/11 12:02:10;;;;;;;10.60;5.85;;;922.50;1356.80;;;;;;5016290;28;20021;-83
2021/07/11 12:05:16;;;;;;;11.23;5.10;;;922.30;1356.80;;;;;;5015940;28;20076;-81
2021/07/11 12:07:44;;;;;;;9.27;5.82;;;922.50;1331.20;;;;;;5029495;28;20044;-81
2021/07/11 12:10:14;;;;;;;10.48;6.30;;;922.00;1331.20;;;;;;5016054;28;20017;-82
2021/07/11 12:12:40;;;;;;;16.13;8.63;;;922.00;1331.20;;;;;;5018937;28;20476;-83
2021/07/11 12:15:07;;;;;;;13.18;10.95;;;922.30;1305.60;;;;;;5019294;28;20025;-83
2021/07/11 12:17:33;;;;;;;15.80;9.43;;;947.50;1356.80;;;;;;5019436;28;20465;-84
2021/07/11 12:19:59;;;;;;;12.10;8.68;;;;;;;;;;5018974;28;20025;-81